sensor_id;sensor_type;location;lat;lon;timestamp;P1;durP1;ratioP1;P2;durP2;ratioP2
58354;SDS011;44160;49.080;19.302;2023-11-21T00:00:51;5.70;;;3.65;;
58354;SDS011;44160;49.080;19.302;2023-11-21T00:03:17;4.43;;;2.95;;
58354;SDS011;44160;49.080;19.302;2023-11-21T00:05:44;5.90;;;2.95;;
58354;SDS011;44160;49.080;19.302;2023-11-21T00:08:10;7.20;;;2.90;;
58354;SDS011;44160;49.080;19.302;2023-11-21T00:10:36;5.05;;;2.83;;
58354;SDS011;44160;49.080;19.302;2023-11-21T00:13:03;5.05;;;2.80;;
58354;SDS011;44160;49.080;19.302;2023-11-21T00:15:29;5.90;;;3.22;;
58354;SDS011;44160;49.080;19.302;2023-11-21T00:17:55;7.45;;;2.97;;
58354;SDS011;44160;49.080;19.302;2023-11-21T00:20:21;4.60;;;2.70;;
58354;SDS011;44160;49.080;19.302;2023-11-21T00:22:47;4.07;;;2.85;;
58354;SDS011;44160;49.080;19.302;2023-11-21T00:25:13;3.42;;;2.50;;
58354;SDS011;44160;49.080;19.302;2023-11-21T00:27:41;3.95;;;2.80;;
58354;SDS011;44160;49.080;19.302;2023-11-21T00:30:07;8.05;;;2.78;;
58354;SDS011;44160;49.080;19.302;2023-11-21T00:32:35;7.35;;;2.38;;
58354;SDS011;44160;49.080;19.302;2023-11-21T00:35:01;3.83;;;2.30;;
58354;SDS011;44160;49.080;19.302;2023-11-21T00:37:27;3.17;;;2.28;;
58354;SDS011;44160;49.080;19.302;2023-11-21T00:39:53;5.18;;;2.45;;
58354;SDS011;44160;49.080;19.302;2023-11-21T00:42:19;6.35;;;2.35;;
58354;SDS011;44160;49.080;19.302;2023-11-21T00:44:46;4.40;;;2.17;;
58354;SDS011;44160;49.080;19.302;2023-11-21T00:47:12;5.35;;;2.17;;
58354;SDS011;44160;49.080;19.302;2023-11-21T00:49:38;5.10;;;1.90;;
58354;SDS011;44160;49.080;19.302;2023-11-21T00:52:04;3.97;;;2.20;;
58354;SDS011;44160;49.080;19.302;2023-11-21T00:54:31;4.32;;;2.00;;
58354;SDS011;44160;49.080;19.302;2023-11-21T00:56:57;3.67;;;2.13;;
58354;SDS011;44160;49.080;19.302;2023-11-21T00:59:23;5.60;;;2.50;;
58354;SDS011;44160;49.080;19.302;2023-11-21T01:01:49;2.05;;;1.80;;
58354;SDS011;44160;49.080;19.302;2023-11-21T01:04:15;3.13;;;1.55;;
58354;SDS011;44160;49.080;19.302;2023-11-21T01:06:44;3.38;;;1.80;;
58354;SDS011;44160;49.080;19.302;2023-11-21T01:09:10;3.55;;;1.90;;
58354;SDS011;44160;49.080;19.302;2023-11-21T01:11:37;1.83;;;1.50;;
58354;SDS011;44160;49.080;19.302;2023-11-21T01:14:04;3.90;;;1.85;;
58354;SDS011;44160;49.080;19.302;2023-11-21T01:16:31;2.67;;;1.80;;
58354;SDS011;44160;49.080;19.302;2023-11-21T01:18:57;2.92;;;2.22;;
58354;SDS011;44160;49.080;19.302;2023-11-21T01:21:24;3.92;;;2.13;;
58354;SDS011;44160;49.080;19.302;2023-11-21T01:23:50;6.05;;;2.20;;
58354;SDS011;44160;49.080;19.302;2023-11-21T01:26:16;3.70;;;2.05;;
58354;SDS011;44160;49.080;19.302;2023-11-21T01:28:42;2.45;;;1.50;;
58354;SDS011;44160;49.080;19.302;2023-11-21T01:31:08;2.80;;;1.80;;
58354;SDS011;44160;49.080;19.302;2023-11-21T01:33:34;2.60;;;1.80;;
58354;SDS011;44160;49.080;19.302;2023-11-21T01:36:03;3.38;;;2.10;;
58354;SDS011;44160;49.080;19.302;2023-11-21T01:38:30;3.90;;;1.95;;
58354;SDS011;44160;49.080;19.302;2023-11-21T01:40:57;2.25;;;1.67;;
58354;SDS011;44160;49.080;19.302;2023-11-21T01:43:25;2.88;;;1.70;;
58354;SDS011;44160;49.080;19.302;2023-11-21T01:45:51;4.93;;;1.70;;
58354;SDS011;44160;49.080;19.302;2023-11-21T01:48:17;2.72;;;1.95;;
58354;SDS011;44160;49.080;19.302;2023-11-21T01:50:44;2.97;;;1.90;;
58354;SDS011;44160;49.080;19.302;2023-11-21T01:53:11;4.43;;;2.10;;
58354;SDS011;44160;49.080;19.302;2023-11-21T01:55:38;4.93;;;1.95;;
58354;SDS011;44160;49.080;19.302;2023-11-21T01:58:05;4.05;;;2.72;;
58354;SDS011;44160;49.080;19.302;2023-11-21T02:00:32;7.22;;;2.67;;
58354;SDS011;44160;49.080;19.302;2023-11-21T02:02:58;3.97;;;2.13;;
58354;SDS011;44160;49.080;19.302;2023-11-21T02:05:24;3.00;;;1.73;;
58354;SDS011;44160;49.080;19.302;2023-11-21T02:07:51;5.18;;;2.15;;
58354;SDS011;44160;49.080;19.302;2023-11-21T02:10:17;3.05;;;2.33;;
58354;SDS011;44160;49.080;19.302;2023-11-21T02:12:47;3.20;;;1.90;;
58354;SDS011;44160;49.080;19.302;2023-11-21T02:15:15;5.00;;;1.98;;
58354;SDS011;44160;49.080;19.302;2023-11-21T02:17:48;2.42;;;1.63;;
58354;SDS011;44160;49.080;19.302;2023-11-21T02:20:19;4.13;;;2.33;;
58354;SDS011;44160;49.080;19.302;2023-11-21T02:22:49;4.57;;;2.13;;
58354;SDS011;44160;49.080;19.302;2023-11-21T02:25:20;2.30;;;1.67;;
58354;SDS011;44160;49.080;19.302;2023-11-21T02:27:47;5.30;;;1.75;;
58354;SDS011;44160;49.080;19.302;2023-11-21T02:30:14;3.22;;;1.52;;
58354;SDS011;44160;49.080;19.302;2023-11-21T02:32:41;3.67;;;2.03;;
58354;SDS011;44160;49.080;19.302;2023-11-21T02:35:08;5.68;;;1.50;;
58354;SDS011;44160;49.080;19.302;2023-11-21T02:37:34;2.72;;;1.45;;
58354;SDS011;44160;49.080;19.302;2023-11-21T02:40:01;2.22;;;1.58;;
58354;SDS011;44160;49.080;19.302;2023-11-21T02:42:31;3.53;;;1.75;;
58354;SDS011;44160;49.080;19.302;2023-11-21T02:44:57;2.83;;;1.40;;
58354;SDS011;44160;49.080;19.302;2023-11-21T02:47:23;2.13;;;1.65;;
58354;SDS011;44160;49.080;19.302;2023-11-21T02:49:49;4.88;;;1.90;;
58354;SDS011;44160;49.080;19.302;2023-11-21T02:52:17;4.30;;;2.00;;
58354;SDS011;44160;49.080;19.302;2023-11-21T02:54:44;3.42;;;1.70;;
58354;SDS011;44160;49.080;19.302;2023-11-21T02:57:10;3.10;;;1.60;;
58354;SDS011;44160;49.080;19.302;2023-11-21T02:59:36;3.45;;;1.77;;
58354;SDS011;44160;49.080;19.302;2023-11-21T03:02:02;3.92;;;1.55;;
58354;SDS011;44160;49.080;19.302;2023-11-21T03:04:28;2.55;;;1.65;;
58354;SDS011;44160;49.080;19.302;2023-11-21T03:06:54;3.08;;;1.60;;
58354;SDS011;44160;49.080;19.302;2023-11-21T03:09:20;6.93;;;1.83;;
58354;SDS011;44160;49.080;19.302;2023-11-21T03:11:46;2.53;;;1.42;;
58354;SDS011;44160;49.080;19.302;2023-11-21T03:14:12;1.80;;;1.50;;
58354;SDS011;44160;49.080;19.302;2023-11-21T03:16:38;3.15;;;1.70;;
58354;SDS011;44160;49.080;19.302;2023-11-21T03:19:06;3.75;;;1.65;;
58354;SDS011;44160;49.080;19.302;2023-11-21T03:21:33;2.17;;;1.52;;
58354;SDS011;44160;49.080;19.302;2023-11-21T03:23:59;5.05;;;1.88;;
58354;SDS011;44160;49.080;19.302;2023-11-21T03:26:25;4.40;;;1.95;;
58354;SDS011;44160;49.080;19.302;2023-11-21T03:28:51;2.65;;;1.65;;
58354;SDS011;44160;49.080;19.302;2023-11-21T03:31:18;4.18;;;1.77;;
58354;SDS011;44160;49.080;19.302;2023-11-21T03:33:45;7.25;;;2.08;;
58354;SDS011;44160;49.080;19.302;2023-11-21T03:36:12;6.10;;;1.90;;
58354;SDS011;44160;49.080;19.302;2023-11-21T03:38:40;2.80;;;1.65;;
58354;SDS011;44160;49.080;19.302;2023-11-21T03:41:07;2.00;;;1.80;;
58354;SDS011;44160;49.080;19.302;2023-11-21T03:43:35;3.80;;;2.20;;
58354;SDS011;44160;49.080;19.302;2023-11-21T03:46:01;3.13;;;2.10;;
58354;SDS011;44160;49.080;19.302;2023-11-21T03:48:27;4.30;;;2.03;;
58354;SDS011;44160;49.080;19.302;2023-11-21T03:50:53;4.90;;;1.80;;
58354;SDS011;44160;49.080;19.302;2023-11-21T03:53:19;3.20;;;1.90;;
58354;SDS011;44160;49.080;19.302;2023-11-21T03:55:45;4.18;;;2.28;;
58354;SDS011;44160;49.080;19.302;2023-11-21T03:58:11;2.90;;;2.30;;
58354;SDS011;44160;49.080;19.302;2023-11-21T04:00:40;2.53;;;1.70;;
58354;SDS011;44160;49.080;19.302;2023-11-21T04:03:07;5.25;;;2.15;;
58354;SDS011;44160;49.080;19.302;2023-11-21T04:05:36;5.13;;;2.15;;
58354;SDS011;44160;49.080;19.302;2023-11-21T04:08:02;5.00;;;2.63;;
58354;SDS011;44160;49.080;19.302;2023-11-21T04:10:28;3.20;;;1.85;;
58354;SDS011;44160;49.080;19.302;2023-11-21T04:12:54;3.42;;;1.85;;
58354;SDS011;44160;49.080;19.302;2023-11-21T04:15:23;3.35;;;2.25;;
58354;SDS011;44160;49.080;19.302;2023-11-21T04:17:51;3.40;;;1.95;;
58354;SDS011;44160;49.080;19.302;2023-11-21T04:20:18;5.38;;;1.92;;
58354;SDS011;44160;49.080;19.302;2023-11-21T04:22:44;4.30;;;2.20;;
58354;SDS011;44160;49.080;19.302;2023-11-21T04:25:10;4.65;;;2.47;;
58354;SDS011;44160;49.080;19.302;2023-11-21T04:27:38;5.05;;;3.20;;
58354;SDS011;44160;49.080;19.302;2023-11-21T04:30:09;4.50;;;2.75;;
58354;SDS011;44160;49.080;19.302;2023-11-21T04:32:36;8.77;;;5.18;;
58354;SDS011;44160;49.080;19.302;2023-11-21T04:35:02;8.18;;;4.07;;
58354;SDS011;44160;49.080;19.302;2023-11-21T04:37:31;7.50;;;4.38;;
58354;SDS011;44160;49.080;19.302;2023-11-21T04:39:57;6.88;;;4.40;;
58354;SDS011;44160;49.080;19.302;2023-11-21T04:42:23;9.88;;;4.97;;
58354;SDS011;44160;49.080;19.302;2023-11-21T04:44:49;9.73;;;5.45;;
58354;SDS011;44160;49.080;19.302;2023-11-21T04:47:15;8.40;;;6.15;;
58354;SDS011;44160;49.080;19.302;2023-11-21T04:49:45;12.57;;;7.95;;
58354;SDS011;44160;49.080;19.302;2023-11-21T04:52:14;9.50;;;5.80;;
58354;SDS011;44160;49.080;19.302;2023-11-21T04:54:40;10.75;;;5.15;;
58354;SDS011;44160;49.080;19.302;2023-11-21T04:57:07;8.30;;;4.97;;
58354;SDS011;44160;49.080;19.302;2023-11-21T04:59:34;9.07;;;4.68;;
58354;SDS011;44160;49.080;19.302;2023-11-21T05:02:00;10.07;;;4.80;;
58354;SDS011;44160;49.080;19.302;2023-11-21T05:04:27;6.85;;;4.32;;
58354;SDS011;44160;49.080;19.302;2023-11-21T05:06:53;9.23;;;4.38;;
58354;SDS011;44160;49.080;19.302;2023-11-21T05:09:19;8.25;;;5.22;;
58354;SDS011;44160;49.080;19.302;2023-11-21T05:11:50;7.43;;;4.50;;
58354;SDS011;44160;49.080;19.302;2023-11-21T05:14:18;6.25;;;4.55;;
58354;SDS011;44160;49.080;19.302;2023-11-21T05:16:45;8.20;;;4.75;;
58354;SDS011;44160;49.080;19.302;2023-11-21T05:19:11;8.23;;;4.80;;
58354;SDS011;44160;49.080;19.302;2023-11-21T05:21:38;5.95;;;4.35;;
58354;SDS011;44160;49.080;19.302;2023-11-21T05:24:04;10.90;;;6.07;;
58354;SDS011;44160;49.080;19.302;2023-11-21T05:26:30;8.90;;;5.90;;
58354;SDS011;44160;49.080;19.302;2023-11-21T05:28:56;8.48;;;5.30;;
58354;SDS011;44160;49.080;19.302;2023-11-21T05:31:22;9.02;;;4.95;;
58354;SDS011;44160;49.080;19.302;2023-11-21T05:33:48;6.43;;;4.75;;
58354;SDS011;44160;49.080;19.302;2023-11-21T05:36:17;6.57;;;4.85;;
58354;SDS011;44160;49.080;19.302;2023-11-21T05:38:43;9.75;;;5.60;;
58354;SDS011;44160;49.080;19.302;2023-11-21T05:41:09;9.93;;;5.85;;
58354;SDS011;44160;49.080;19.302;2023-11-21T05:43:38;7.45;;;5.82;;
58354;SDS011;44160;49.080;19.302;2023-11-21T05:46:04;9.95;;;6.75;;
58354;SDS011;44160;49.080;19.302;2023-11-21T05:48:32;12.63;;;6.15;;
58354;SDS011;44160;49.080;19.302;2023-11-21T05:50:58;11.65;;;6.10;;
58354;SDS011;44160;49.080;19.302;2023-11-21T05:53:24;14.13;;;6.45;;
58354;SDS011;44160;49.080;19.302;2023-11-21T05:55:50;9.10;;;5.70;;
58354;SDS011;44160;49.080;19.302;2023-11-21T05:58:16;9.75;;;6.80;;
58354;SDS011;44160;49.080;19.302;2023-11-21T06:00:42;9.52;;;5.97;;
58354;SDS011;44160;49.080;19.302;2023-11-21T06:03:08;9.05;;;6.00;;
58354;SDS011;44160;49.080;19.302;2023-11-21T06:05:35;10.85;;;5.90;;
58354;SDS011;44160;49.080;19.302;2023-11-21T06:08:01;8.02;;;6.05;;
58354;SDS011;44160;49.080;19.302;2023-11-21T06:10:27;9.18;;;6.20;;
58354;SDS011;44160;49.080;19.302;2023-11-21T06:12:53;13.77;;;7.03;;
58354;SDS011;44160;49.080;19.302;2023-11-21T06:15:19;13.50;;;7.30;;
58354;SDS011;44160;49.080;19.302;2023-11-21T06:17:47;10.93;;;5.70;;
58354;SDS011;44160;49.080;19.302;2023-11-21T06:20:25;8.63;;;5.60;;
58354;SDS011;44160;49.080;19.302;2023-11-21T06:22:51;9.80;;;5.60;;
58354;SDS011;44160;49.080;19.302;2023-11-21T06:25:17;11.38;;;4.90;;
58354;SDS011;44160;49.080;19.302;2023-11-21T06:27:44;11.10;;;3.97;;
58354;SDS011;44160;49.080;19.302;2023-11-21T06:30:11;11.43;;;4.40;;
58354;SDS011;44160;49.080;19.302;2023-11-21T06:32:38;6.15;;;3.78;;
58354;SDS011;44160;49.080;19.302;2023-11-21T06:35:05;7.57;;;4.57;;
58354;SDS011;44160;49.080;19.302;2023-11-21T06:37:31;8.52;;;5.65;;
58354;SDS011;44160;49.080;19.302;2023-11-21T06:39:58;12.90;;;7.03;;
58354;SDS011;44160;49.080;19.302;2023-11-21T06:42:27;16.63;;;7.10;;
58354;SDS011;44160;49.080;19.302;2023-11-21T06:44:57;11.27;;;6.57;;
58354;SDS011;44160;49.080;19.302;2023-11-21T06:47:24;19.33;;;6.97;;
58354;SDS011;44160;49.080;19.302;2023-11-21T06:49:50;13.55;;;6.38;;
58354;SDS011;44160;49.080;19.302;2023-11-21T06:52:18;14.50;;;7.57;;
58354;SDS011;44160;49.080;19.302;2023-11-21T06:54:45;16.77;;;8.02;;
58354;SDS011;44160;49.080;19.302;2023-11-21T06:57:12;12.55;;;7.10;;
58354;SDS011;44160;49.080;19.302;2023-11-21T06:59:38;10.23;;;6.30;;
58354;SDS011;44160;49.080;19.302;2023-11-21T07:02:04;8.63;;;6.15;;
58354;SDS011;44160;49.080;19.302;2023-11-21T07:04:31;11.20;;;6.97;;
58354;SDS011;44160;49.080;19.302;2023-11-21T07:06:57;8.60;;;5.30;;
58354;SDS011;44160;49.080;19.302;2023-11-21T07:09:23;7.82;;;5.00;;
58354;SDS011;44160;49.080;19.302;2023-11-21T07:11:51;10.18;;;6.10;;
58354;SDS011;44160;49.080;19.302;2023-11-21T07:14:17;15.10;;;7.00;;
58354;SDS011;44160;49.080;19.302;2023-11-21T07:16:45;13.32;;;5.10;;
58354;SDS011;44160;49.080;19.302;2023-11-21T07:19:12;9.32;;;5.43;;
58354;SDS011;44160;49.080;19.302;2023-11-21T07:21:38;11.30;;;5.43;;
58354;SDS011;44160;49.080;19.302;2023-11-21T07:24:05;13.43;;;7.68;;
58354;SDS011;44160;49.080;19.302;2023-11-21T07:26:31;14.70;;;6.32;;
58354;SDS011;44160;49.080;19.302;2023-11-21T07:28:58;10.32;;;5.90;;
58354;SDS011;44160;49.080;19.302;2023-11-21T07:31:27;14.45;;;6.53;;
58354;SDS011;44160;49.080;19.302;2023-11-21T07:33:54;10.43;;;6.10;;
58354;SDS011;44160;49.080;19.302;2023-11-21T07:36:22;15.93;;;10.10;;
58354;SDS011;44160;49.080;19.302;2023-11-21T07:38:48;13.50;;;9.95;;
58354;SDS011;44160;49.080;19.302;2023-11-21T07:41:14;16.17;;;10.63;;
58354;SDS011;44160;49.080;19.302;2023-11-21T07:43:44;17.52;;;11.15;;
58354;SDS011;44160;49.080;19.302;2023-11-21T07:46:10;12.75;;;9.15;;
58354;SDS011;44160;49.080;19.302;2023-11-21T07:48:40;14.60;;;9.10;;
58354;SDS011;44160;49.080;19.302;2023-11-21T07:51:09;19.00;;;12.23;;
58354;SDS011;44160;49.080;19.302;2023-11-21T07:53:36;17.63;;;12.52;;
58354;SDS011;44160;49.080;19.302;2023-11-21T07:56:03;15.20;;;9.20;;
58354;SDS011;44160;49.080;19.302;2023-11-21T07:58:29;13.27;;;8.35;;
58354;SDS011;44160;49.080;19.302;2023-11-21T08:00:56;14.07;;;9.98;;
58354;SDS011;44160;49.080;19.302;2023-11-21T08:03:22;29.60;;;21.38;;
58354;SDS011;44160;49.080;19.302;2023-11-21T08:05:48;21.88;;;15.05;;
58354;SDS011;44160;49.080;19.302;2023-11-21T08:08:17;17.60;;;12.27;;
58354;SDS011;44160;49.080;19.302;2023-11-21T08:10:44;15.95;;;12.40;;
58354;SDS011;44160;49.080;19.302;2023-11-21T08:13:13;17.77;;;14.68;;
58354;SDS011;44160;49.080;19.302;2023-11-21T08:15:42;20.85;;;13.98;;
58354;SDS011;44160;49.080;19.302;2023-11-21T08:18:10;25.08;;;15.20;;
58354;SDS011;44160;49.080;19.302;2023-11-21T08:20:36;18.52;;;14.30;;
58354;SDS011;44160;49.080;19.302;2023-11-21T08:23:04;16.95;;;12.15;;
58354;SDS011;44160;49.080;19.302;2023-11-21T08:25:31;18.77;;;12.38;;
58354;SDS011;44160;49.080;19.302;2023-11-21T08:27:58;18.50;;;11.75;;
58354;SDS011;44160;49.080;19.302;2023-11-21T08:30:24;12.40;;;7.60;;
58354;SDS011;44160;49.080;19.302;2023-11-21T08:32:53;57.53;;;23.45;;
58354;SDS011;44160;49.080;19.302;2023-11-21T08:35:19;104.53;;;41.97;;
58354;SDS011;44160;49.080;19.302;2023-11-21T08:37:47;15.30;;;9.45;;
58354;SDS011;44160;49.080;19.302;2023-11-21T08:40:17;9.95;;;4.43;;
58354;SDS011;44160;49.080;19.302;2023-11-21T08:43:06;5.72;;;3.92;;
58354;SDS011;44160;49.080;19.302;2023-11-21T08:45:33;5.68;;;3.38;;
58354;SDS011;44160;49.080;19.302;2023-11-21T08:48:11;5.75;;;4.03;;
58354;SDS011;44160;49.080;19.302;2023-11-21T08:50:37;8.32;;;3.33;;
58354;SDS011;44160;49.080;19.302;2023-11-21T08:53:03;7.68;;;3.97;;
58354;SDS011;44160;49.080;19.302;2023-11-21T08:55:34;8.43;;;4.28;;
58354;SDS011;44160;49.080;19.302;2023-11-21T08:58:11;7.28;;;4.05;;
58354;SDS011;44160;49.080;19.302;2023-11-21T09:00:39;6.13;;;3.05;;
58354;SDS011;44160;49.080;19.302;2023-11-21T09:03:06;4.18;;;2.45;;
58354;SDS011;44160;49.080;19.302;2023-11-21T09:05:39;4.90;;;3.03;;
58354;SDS011;44160;49.080;19.302;2023-11-21T09:08:08;3.85;;;2.80;;
58354;SDS011;44160;49.080;19.302;2023-11-21T09:10:53;6.43;;;3.20;;
58354;SDS011;44160;49.080;19.302;2023-11-21T09:15:47;8.15;;;2.90;;
58354;SDS011;44160;49.080;19.302;2023-11-21T09:18:16;6.93;;;3.20;;
58354;SDS011;44160;49.080;19.302;2023-11-21T09:20:42;5.45;;;2.88;;
58354;SDS011;44160;49.080;19.302;2023-11-21T09:23:11;5.40;;;2.35;;
58354;SDS011;44160;49.080;19.302;2023-11-21T09:25:37;5.18;;;2.80;;
58354;SDS011;44160;49.080;19.302;2023-11-21T09:28:04;5.57;;;2.60;;
58354;SDS011;44160;49.080;19.302;2023-11-21T09:30:34;6.07;;;3.13;;
58354;SDS011;44160;49.080;19.302;2023-11-21T09:33:01;6.10;;;4.25;;
58354;SDS011;44160;49.080;19.302;2023-11-21T09:35:30;5.28;;;2.60;;
58354;SDS011;44160;49.080;19.302;2023-11-21T09:37:59;5.35;;;3.15;;
58354;SDS011;44160;49.080;19.302;2023-11-21T09:40:29;8.77;;;3.42;;
58354;SDS011;44160;49.080;19.302;2023-11-21T09:42:58;10.68;;;3.75;;
58354;SDS011;44160;49.080;19.302;2023-11-21T09:45:28;11.30;;;5.25;;
58354;SDS011;44160;49.080;19.302;2023-11-21T09:47:56;6.05;;;4.20;;
58354;SDS011;44160;49.080;19.302;2023-11-21T09:50:23;4.15;;;3.08;;
58354;SDS011;44160;49.080;19.302;2023-11-21T09:55:21;4.85;;;3.22;;
58354;SDS011;44160;49.080;19.302;2023-11-21T09:57:47;10.65;;;4.72;;
58354;SDS011;44160;49.080;19.302;2023-11-21T10:00:14;6.65;;;4.00;;
58354;SDS011;44160;49.080;19.302;2023-11-21T10:02:52;7.95;;;3.53;;
58354;SDS011;44160;49.080;19.302;2023-11-21T10:05:18;6.55;;;3.47;;
58354;SDS011;44160;49.080;19.302;2023-11-21T10:07:44;6.13;;;3.20;;
58354;SDS011;44160;49.080;19.302;2023-11-21T10:10:11;12.90;;;6.57;;
58354;SDS011;44160;49.080;19.302;2023-11-21T10:12:41;5.03;;;3.67;;
58354;SDS011;44160;49.080;19.302;2023-11-21T10:15:25;6.60;;;3.33;;
58354;SDS011;44160;49.080;19.302;2023-11-21T10:17:52;10.15;;;4.63;;
58354;SDS011;44160;49.080;19.302;2023-11-21T10:20:19;19.58;;;8.75;;
58354;SDS011;44160;49.080;19.302;2023-11-21T10:22:45;20.35;;;8.30;;
58354;SDS011;44160;49.080;19.302;2023-11-21T10:25:12;6.32;;;3.55;;
58354;SDS011;44160;49.080;19.302;2023-11-21T10:31:06;9.32;;;4.13;;
58354;SDS011;44160;49.080;19.302;2023-11-21T10:33:38;5.95;;;3.22;;
58354;SDS011;44160;49.080;19.302;2023-11-21T10:36:06;7.53;;;3.30;;
58354;SDS011;44160;49.080;19.302;2023-11-21T10:38:37;4.03;;;3.00;;
58354;SDS011;44160;49.080;19.302;2023-11-21T10:41:10;6.05;;;3.10;;
58354;SDS011;44160;49.080;19.302;2023-11-21T10:43:40;7.53;;;2.88;;
58354;SDS011;44160;49.080;19.302;2023-11-21T10:46:08;4.75;;;2.45;;
58354;SDS011;44160;49.080;19.302;2023-11-21T10:48:35;5.35;;;2.88;;
58354;SDS011;44160;49.080;19.302;2023-11-21T10:51:07;4.72;;;3.03;;
58354;SDS011;44160;49.080;19.302;2023-11-21T10:53:40;5.32;;;2.80;;
58354;SDS011;44160;49.080;19.302;2023-11-21T10:56:08;4.85;;;2.83;;
58354;SDS011;44160;49.080;19.302;2023-11-21T10:58:37;4.68;;;2.53;;
58354;SDS011;44160;49.080;19.302;2023-11-21T11:01:05;6.88;;;2.83;;
58354;SDS011;44160;49.080;19.302;2023-11-21T11:03:35;3.88;;;2.67;;
58354;SDS011;44160;49.080;19.302;2023-11-21T11:06:06;2.58;;;2.33;;
58354;SDS011;44160;49.080;19.302;2023-11-21T11:08:42;3.65;;;2.28;;
58354;SDS011;44160;49.080;19.302;2023-11-21T11:11:09;8.95;;;4.05;;
58354;SDS011;44160;49.080;19.302;2023-11-21T11:13:44;8.60;;;3.97;;
58354;SDS011;44160;49.080;19.302;2023-11-21T11:18:46;8.35;;;4.38;;
58354;SDS011;44160;49.080;19.302;2023-11-21T11:21:27;10.27;;;4.53;;
58354;SDS011;44160;49.080;19.302;2023-11-21T11:28:57;6.32;;;3.55;;
58354;SDS011;44160;49.080;19.302;2023-11-21T11:39:51;4.22;;;2.10;;
58354;SDS011;44160;49.080;19.302;2023-11-21T11:42:19;5.72;;;3.00;;
58354;SDS011;44160;49.080;19.302;2023-11-21T11:44:51;12.50;;;3.63;;
58354;SDS011;44160;49.080;19.302;2023-11-21T11:47:29;7.38;;;4.03;;
58354;SDS011;44160;49.080;19.302;2023-11-21T11:49:59;9.48;;;4.32;;
58354;SDS011;44160;49.080;19.302;2023-11-21T11:52:42;9.02;;;4.28;;
58354;SDS011;44160;49.080;19.302;2023-11-21T11:55:09;6.18;;;3.47;;
58354;SDS011;44160;49.080;19.302;2023-11-21T11:57:35;5.45;;;2.92;;
58354;SDS011;44160;49.080;19.302;2023-11-21T12:00:08;6.82;;;3.13;;
58354;SDS011;44160;49.080;19.302;2023-11-21T12:02:35;3.58;;;2.53;;
58354;SDS011;44160;49.080;19.302;2023-11-21T12:05:07;3.92;;;2.38;;
58354;SDS011;44160;49.080;19.302;2023-11-21T12:10:37;5.20;;;2.15;;
58354;SDS011;44160;49.080;19.302;2023-11-21T12:13:08;4.45;;;1.90;;
58354;SDS011;44160;49.080;19.302;2023-11-21T12:15:35;2.78;;;1.50;;
58354;SDS011;44160;49.080;19.302;2023-11-21T12:18:02;4.38;;;1.30;;
58354;SDS011;44160;49.080;19.302;2023-11-21T12:20:29;2.58;;;1.50;;
58354;SDS011;44160;49.080;19.302;2023-11-21T12:22:58;3.83;;;1.50;;
58354;SDS011;44160;49.080;19.302;2023-11-21T12:28:02;3.55;;;1.95;;
58354;SDS011;44160;49.080;19.302;2023-11-21T12:30:29;6.75;;;5.35;;
58354;SDS011;44160;49.080;19.302;2023-11-21T12:33:00;7.07;;;4.70;;
58354;SDS011;44160;49.080;19.302;2023-11-21T12:35:30;11.48;;;4.97;;
58354;SDS011;44160;49.080;19.302;2023-11-21T12:37:59;5.70;;;3.00;;
58354;SDS011;44160;49.080;19.302;2023-11-21T12:40:27;5.13;;;2.90;;
58354;SDS011;44160;49.080;19.302;2023-11-21T12:42:55;4.05;;;2.38;;
58354;SDS011;44160;49.080;19.302;2023-11-21T12:45:22;4.65;;;2.53;;
58354;SDS011;44160;49.080;19.302;2023-11-21T12:47:51;3.33;;;2.60;;
58354;SDS011;44160;49.080;19.302;2023-11-21T12:50:24;6.35;;;2.17;;
58354;SDS011;44160;49.080;19.302;2023-11-21T12:52:54;4.60;;;2.50;;
58354;SDS011;44160;49.080;19.302;2023-11-21T12:55:23;4.60;;;2.65;;
58354;SDS011;44160;49.080;19.302;2023-11-21T12:58:11;3.53;;;1.67;;
58354;SDS011;44160;49.080;19.302;2023-11-21T13:00:45;4.53;;;1.88;;
58354;SDS011;44160;49.080;19.302;2023-11-21T13:03:12;6.03;;;3.53;;
58354;SDS011;44160;49.080;19.302;2023-11-21T13:05:41;4.07;;;2.38;;
58354;SDS011;44160;49.080;19.302;2023-11-21T13:08:10;3.70;;;2.00;;
58354;SDS011;44160;49.080;19.302;2023-11-21T13:10:44;4.80;;;2.90;;
58354;SDS011;44160;49.080;19.302;2023-11-21T13:13:12;4.88;;;3.08;;
58354;SDS011;44160;49.080;19.302;2023-11-21T13:15:50;6.90;;;3.70;;
58354;SDS011;44160;49.080;19.302;2023-11-21T13:18:25;6.47;;;3.83;;
58354;SDS011;44160;49.080;19.302;2023-11-21T13:20:57;6.30;;;3.65;;
58354;SDS011;44160;49.080;19.302;2023-11-21T13:23:29;8.43;;;4.32;;
58354;SDS011;44160;49.080;19.302;2023-11-21T13:25:59;7.28;;;3.50;;
58354;SDS011;44160;49.080;19.302;2023-11-21T13:28:29;8.52;;;4.55;;
58354;SDS011;44160;49.080;19.302;2023-11-21T13:30:58;9.07;;;4.47;;
58354;SDS011;44160;49.080;19.302;2023-11-21T13:33:28;11.45;;;6.40;;
58354;SDS011;44160;49.080;19.302;2023-11-21T13:35:55;9.10;;;6.13;;
58354;SDS011;44160;49.080;19.302;2023-11-21T13:38:22;14.23;;;5.35;;
58354;SDS011;44160;49.080;19.302;2023-11-21T13:40:51;7.88;;;4.68;;
58354;SDS011;44160;49.080;19.302;2023-11-21T13:43:23;5.47;;;3.58;;
58354;SDS011;44160;49.080;19.302;2023-11-21T13:45:50;3.72;;;2.72;;
58354;SDS011;44160;49.080;19.302;2023-11-21T13:48:26;4.75;;;3.08;;
58354;SDS011;44160;49.080;19.302;2023-11-21T13:51:15;10.05;;;3.75;;
58354;SDS011;44160;49.080;19.302;2023-11-21T13:53:48;11.55;;;7.57;;
58354;SDS011;44160;49.080;19.302;2023-11-21T13:56:18;6.10;;;3.15;;
58354;SDS011;44160;49.080;19.302;2023-11-21T13:58:53;3.75;;;2.40;;
58354;SDS011;44160;49.080;19.302;2023-11-21T14:01:21;8.50;;;4.07;;
58354;SDS011;44160;49.080;19.302;2023-11-21T14:04:06;7.88;;;2.40;;
58354;SDS011;44160;49.080;19.302;2023-11-21T14:06:42;3.20;;;2.00;;
58354;SDS011;44160;49.080;19.302;2023-11-21T14:09:15;3.63;;;2.33;;
58354;SDS011;44160;49.080;19.302;2023-11-21T14:11:52;5.35;;;3.08;;
58354;SDS011;44160;49.080;19.302;2023-11-21T14:14:21;6.75;;;3.50;;
58354;SDS011;44160;49.080;19.302;2023-11-21T14:16:47;5.47;;;2.75;;
58354;SDS011;44160;49.080;19.302;2023-11-21T14:19:13;4.75;;;3.08;;
58354;SDS011;44160;49.080;19.302;2023-11-21T14:21:45;3.65;;;2.67;;
58354;SDS011;44160;49.080;19.302;2023-11-21T14:24:13;3.58;;;2.45;;
58354;SDS011;44160;49.080;19.302;2023-11-21T14:26:44;8.13;;;3.13;;
58354;SDS011;44160;49.080;19.302;2023-11-21T14:29:14;7.53;;;2.97;;
58354;SDS011;44160;49.080;19.302;2023-11-21T14:31:45;5.13;;;3.20;;
58354;SDS011;44160;49.080;19.302;2023-11-21T14:34:11;6.55;;;3.38;;
58354;SDS011;44160;49.080;19.302;2023-11-21T14:36:40;9.38;;;4.50;;
58354;SDS011;44160;49.080;19.302;2023-11-21T14:39:06;8.48;;;3.78;;
58354;SDS011;44160;49.080;19.302;2023-11-21T14:41:36;6.70;;;4.22;;
58354;SDS011;44160;49.080;19.302;2023-11-21T14:44:07;5.93;;;4.05;;
58354;SDS011;44160;49.080;19.302;2023-11-21T14:46:47;9.73;;;5.00;;
58354;SDS011;44160;49.080;19.302;2023-11-21T14:49:16;11.73;;;5.05;;
58354;SDS011;44160;49.080;19.302;2023-11-21T14:51:55;8.13;;;5.13;;
58354;SDS011;44160;49.080;19.302;2023-11-21T14:54:31;11.05;;;4.53;;
58354;SDS011;44160;49.080;19.302;2023-11-21T14:57:11;25.65;;;13.90;;
58354;SDS011;44160;49.080;19.302;2023-11-21T14:59:46;10.50;;;5.43;;
58354;SDS011;44160;49.080;19.302;2023-11-21T15:02:14;7.90;;;4.05;;
58354;SDS011;44160;49.080;19.302;2023-11-21T15:04:43;12.48;;;5.18;;
58354;SDS011;44160;49.080;19.302;2023-11-21T15:07:09;14.80;;;8.60;;